Terminal Aerodrome Forecast
Issued by NWS

Home | Current Version | Previous Version | Text Only | Print | Product List | Glossary Off
Versions: 1 2 3 4 5 6 7 8 9 10 11 12 13 14 15 16 17 18 19 20 21 22 23 24 25

000
FTUS45 KCYS 271120
TAFAIA
TAF
KAIA 271120Z 2712/2812 25008KT P6SM BKN200
     FM271700 30020G28KT P6SM BKN120
     FM280200 29013KT P6SM BKN100
     FM280600 32015G25KT P6SM OVC050
     FM280900 33015G25KT P6SM OVC025=

USA.gov is the U.S. government's official web portal to all federal, state and local government web resources and services.